Time;durP1;ratioP1;P1;durP2;ratioP2;P2;SDS_P1;SDS_P2;PMS_P1;PMS_P2;Temp;Humidity;BMP_temperature;BMP_pressure;BME280_temperature;BME280_humidity;BME280_pressure;Samples;Min_cycle;Max_cycle;Signal;HPM_P1;HPM_P2
2021/09/25 00:01:07;;;;;;;11.47;10.40;;;14.30;99.90;;;;;;5023951;28;20179;-67
2021/09/25 00:03:33;;;;;;;12.23;10.33;;;14.20;99.90;;;;;;5011894;28;20179;-67
2021/09/25 00:05:58;;;;;;;11.20;10.10;;;14.20;99.90;;;;;;5017155;28;20179;-67
2021/09/25 00:08:24;;;;;;;12.27;11.17;;;14.20;99.90;;;;;;5031708;28;20196;-67
2021/09/25 00:10:49;;;;;;;14.40;12.90;;;14.10;99.90;;;;;;5029568;28;20168;-66
2021/09/25 00:13:15;;;;;;;11.70;10.67;;;14.00;99.90;;;;;;5031560;28;20648;-67
2021/09/25 00:15:41;;;;;;;13.00;11.80;;;14.00;99.90;;;;;;5028970;28;20215;-67
2021/09/25 00:18:07;;;;;;;12.43;10.50;;;14.10;99.90;;;;;;5011838;28;20168;-67
2021/09/25 00:20:36;;;;;;;12.47;11.17;;;14.00;99.90;;;;;;5011952;28;20602;-67
2021/09/25 00:23:02;;;;;;;12.90;11.50;;;13.90;99.90;;;;;;5031513;28;20595;-65
2021/09/25 00:25:28;;;;;;;12.00;10.87;;;13.90;99.90;;;;;;5031215;28;20559;-65
2021/09/25 00:27:54;;;;;;;13.47;12.30;;;13.80;99.90;;;;;;5012071;28;20207;-67
2021/09/25 00:30:20;;;;;;;13.27;11.97;;;13.80;99.90;;;;;;5011314;28;20199;-66
2021/09/25 00:32:46;;;;;;;13.77;12.30;;;13.70;99.90;;;;;;5028425;28;20751;-68
2021/09/25 00:35:12;;;;;;;13.20;12.10;;;13.70;99.90;;;;;;5011455;28;20188;-67
2021/09/25 00:37:38;;;;;;;13.17;11.93;;;13.70;99.90;;;;;;5027650;28;20502;-67
2021/09/25 00:40:06;;;;;;;13.93;12.60;;;13.60;99.90;;;;;;5031337;28;20230;-68
2021/09/25 00:42:33;;;;;;;13.10;11.80;;;13.60;99.90;;;;;;5016750;28;20600;-67
2021/09/25 00:44:58;;;;;;;13.40;12.10;;;13.50;99.90;;;;;;5011442;28;20195;-66
2021/09/25 00:47:24;;;;;;;14.53;12.27;;;13.50;99.90;;;;;;5027983;28;20183;-67
2021/09/25 00:49:50;;;;;;;13.57;12.40;;;13.40;99.90;;;;;;5028859;28;20204;-67
2021/09/25 00:52:16;;;;;;;16.67;15.07;;;13.40;99.90;;;;;;5014188;28;20226;-67
2021/09/25 00:54:42;;;;;;;18.40;16.80;;;13.40;99.90;;;;;;5019345;28;20282;-66
2021/09/25 00:57:08;;;;;;;15.80;13.63;;;13.40;99.90;;;;;;5035026;28;20176;-64
2021/09/25 00:59:34;;;;;;;16.67;15.00;;;13.40;99.90;;;;;;5032072;28;20207;-67
2021/09/25 01:02:00;;;;;;;13.83;12.43;;;13.40;99.90;;;;;;5015119;28;20176;-66
2021/09/25 01:04:26;;;;;;;15.80;14.30;;;13.40;99.90;;;;;;5015747;28;20192;-67
2021/09/25 01:06:52;;;;;;;20.17;18.53;;;13.40;99.90;;;;;;5034092;28;20174;-67
2021/09/25 01:09:18;;;;;;;14.23;12.77;;;13.40;99.90;;;;;;5034435;28;20695;-67
2021/09/25 01:11:43;;;;;;;15.10;13.60;;;13.30;99.90;;;;;;5015549;28;20180;-66
2021/09/25 01:14:09;;;;;;;16.40;14.90;;;13.30;99.90;;;;;;5015934;28;20606;-67
2021/09/25 01:16:35;;;;;;;15.13;13.53;;;13.20;99.90;;;;;;5015086;28;20641;-66
2021/09/25 01:19:01;;;;;;;16.60;14.97;;;13.20;99.90;;;;;;5028280;28;20183;-67
2021/09/25 01:21:27;;;;;;;16.53;13.80;;;13.20;99.90;;;;;;5034556;28;20190;-66
2021/09/25 01:23:52;;;;;;;15.67;14.10;;;13.30;99.90;;;;;;5020653;28;20212;-66
2021/09/25 01:26:20;;;;;;;17.07;14.20;;;13.30;99.90;;;;;;5014770;28;20223;-67
2021/09/25 01:28:47;;;;;;;19.20;15.33;;;13.30;99.90;;;;;;5025904;28;20201;-65
2021/09/25 01:31:14;;;;;;;16.37;14.80;;;13.20;99.90;;;;;;5034217;28;20262;-66
2021/09/25 01:33:46;;;;;;;17.10;14.80;;;13.20;99.90;;;;;;5024009;28;20258;-65
2021/09/25 01:36:13;;;;;;;16.80;14.23;;;13.30;99.90;;;;;;5014778;28;20161;-67
2021/09/25 01:38:39;;;;;;;16.20;14.63;;;13.20;99.90;;;;;;5023886;28;20183;-67
2021/09/25 01:41:05;;;;;;;16.73;15.03;;;13.20;99.90;;;;;;5033958;28;20163;-67
2021/09/25 01:43:31;;;;;;;15.73;14.23;;;13.20;99.90;;;;;;5025832;28;20195;-66
2021/09/25 01:45:57;;;;;;;18.00;16.40;;;13.20;99.90;;;;;;5014323;28;20734;-67
2021/09/25 01:48:23;;;;;;;16.00;14.40;;;13.10;99.90;;;;;;5020860;28;20183;-68
2021/09/25 01:50:50;;;;;;;16.50;14.63;;;13.10;99.90;;;;;;5033878;28;20168;-67
2021/09/25 01:53:16;;;;;;;15.87;14.40;;;13.00;99.90;;;;;;5029346;28;20581;-66
2021/09/25 01:55:42;;;;;;;16.27;14.57;;;13.00;99.90;;;;;;5015186;28;20230;-66
2021/09/25 01:58:08;;;;;;;16.80;15.07;;;13.00;99.90;;;;;;5033559;28;20688;-67
2021/09/25 02:00:34;;;;;;;16.27;14.77;;;13.00;99.90;;;;;;5033598;28;20179;-68
2021/09/25 02:03:01;;;;;;;15.33;13.90;;;13.00;99.90;;;;;;5014434;28;20168;-67
2021/09/25 02:05:27;;;;;;;17.33;15.70;;;12.90;99.90;;;;;;5013620;28;20673;-66
2021/09/25 02:07:53;;;;;;;18.57;16.67;;;12.90;99.90;;;;;;5031036;28;20510;-66
2021/09/25 02:10:19;;;;;;;19.67;17.87;;;12.90;99.90;;;;;;5033441;28;20253;-66
2021/09/25 02:12:45;;;;;;;17.73;15.93;;;12.90;99.90;;;;;;5017081;28;20218;-66
2021/09/25 02:15:12;;;;;;;18.13;16.37;;;12.90;99.90;;;;;;5013795;28;20184;-65
2021/09/25 02:17:38;;;;;;;18.43;16.53;;;12.90;99.90;;;;;;5028283;28;20203;-66
2021/09/25 02:20:06;;;;;;;15.37;13.93;;;12.90;99.90;;;;;;5033463;28;20241;-67
2021/09/25 02:22:32;;;;;;;16.97;15.40;;;12.90;99.90;;;;;;5020210;28;20515;-66
2021/09/25 02:24:58;;;;;;;18.37;16.60;;;12.80;99.90;;;;;;5023319;28;20258;-67
2021/09/25 02:27:24;;;;;;;17.33;15.80;;;12.80;99.90;;;;;;5033605;28;20203;-67
2021/09/25 02:29:49;;;;;;;18.77;16.87;;;12.80;99.90;;;;;;5024630;28;20203;-67
2021/09/25 02:32:15;;;;;;;18.03;15.50;;;12.70;99.90;;;;;;5013574;28;20760;-68
2021/09/25 02:34:41;;;;;;;21.17;19.27;;;12.70;99.90;;;;;;5019502;28;20227;-66
2021/09/25 02:37:06;;;;;;;23.37;21.20;;;12.70;99.90;;;;;;5033671;28;20183;-67
2021/09/25 02:39:34;;;;;;;28.30;25.90;;;12.70;99.90;;;;;;5028335;28;20286;-67
2021/09/25 02:41:59;;;;;;;20.87;18.67;;;12.70;99.90;;;;;;5013612;28;20444;-67
2021/09/25 02:44:25;;;;;;;17.93;15.97;;;12.70;99.90;;;;;;5015996;28;20306;-67
2021/09/25 02:46:51;;;;;;;19.07;17.17;;;12.70;99.90;;;;;;5033136;28;20168;-67
2021/09/25 02:49:19;;;;;;;17.47;15.80;;;12.70;99.90;;;;;;5027551;28;20207;-67
2021/09/25 02:51:45;;;;;;;19.10;17.13;;;12.70;99.90;;;;;;5032899;28;20703;-67
2021/09/25 02:54:11;;;;;;;17.43;15.67;;;12.70;99.90;;;;;;5014594;28;20220;-66
2021/09/25 02:56:36;;;;;;;17.70;15.67;;;12.70;99.90;;;;;;5013161;28;20609;-66
2021/09/25 02:59:03;;;;;;;18.50;16.60;;;12.70;99.90;;;;;;5029099;28;20217;-66
2021/09/25 03:01:29;;;;;;;19.07;17.27;;;12.70;99.90;;;;;;5032645;28;20214;-66
2021/09/25 03:03:55;;;;;;;18.17;15.47;;;12.70;99.90;;;;;;5017723;28;20678;-66
2021/09/25 03:06:25;;;;;;;19.73;17.03;;;12.70;99.90;;;;;;5012045;28;20257;-67
2021/09/25 03:08:51;;;;;;;25.07;23.07;;;12.70;99.90;;;;;;5025273;28;20211;-66
2021/09/25 03:11:17;;;;;;;21.07;18.97;;;12.70;99.90;;;;;;5032311;28;20736;-66
2021/09/25 03:13:43;;;;;;;36.70;34.07;;;12.70;99.90;;;;;;5020547;28;20204;-66
2021/09/25 03:16:09;;;;;;;29.53;27.17;;;12.70;99.90;;;;;;5012907;28;20172;-66
2021/09/25 03:18:34;;;;;;;22.80;20.77;;;12.70;99.90;;;;;;5020739;28;20190;-67
2021/09/25 03:21:00;;;;;;;19.47;17.70;;;12.60;99.90;;;;;;5032062;28;20180;-67
2021/09/25 03:23:26;;;;;;;21.80;19.57;;;12.60;99.90;;;;;;5024005;28;20180;-67
2021/09/25 03:25:51;;;;;;;27.37;25.20;;;12.70;99.90;;;;;;5012421;28;20653;-66
2021/09/25 03:28:17;;;;;;;23.73;21.90;;;12.70;99.90;;;;;;5018545;28;20259;-67
2021/09/25 03:30:43;;;;;;;23.30;21.10;;;12.60;99.90;;;;;;5031890;28;20170;-65
2021/09/25 03:33:08;;;;;;;18.73;16.67;;;12.60;99.90;;;;;;5027809;28;20523;-67
2021/09/25 03:35:34;;;;;;;19.73;16.20;;;12.60;99.90;;;;;;5012591;28;20195;-67
2021/09/25 03:38:02;;;;;;;19.17;17.10;;;12.60;99.90;;;;;;5013468;28;20176;-66
2021/09/25 03:40:29;;;;;;;21.23;18.70;;;12.60;99.90;;;;;;5012027;28;20180;-67
2021/09/25 03:42:55;;;;;;;19.83;17.83;;;12.50;99.90;;;;;;5024897;28;20270;-67
2021/09/25 03:45:20;;;;;;;17.70;15.80;;;12.50;99.90;;;;;;5030999;28;20290;-68
2021/09/25 03:47:46;;;;;;;21.00;16.57;;;12.50;99.90;;;;;;5029479;28;20234;-67
2021/09/25 03:50:13;;;;;;;20.33;17.43;;;12.50;99.90;;;;;;5031689;28;20198;-66
2021/09/25 03:52:39;;;;;;;20.73;16.60;;;12.40;99.90;;;;;;5022173;28;20668;-67
2021/09/25 03:55:07;;;;;;;19.60;17.23;;;12.40;99.90;;;;;;5012061;28;20196;-67
2021/09/25 03:57:33;;;;;;;26.70;24.07;;;12.40;99.90;;;;;;5020047;28;20215;-67
2021/09/25 03:59:59;;;;;;;28.50;22.07;;;12.40;99.90;;;;;;5031484;28;20187;-67
2021/09/25 04:02:24;;;;;;;19.40;17.30;;;12.40;99.90;;;;;;5025083;28;20180;-67
2021/09/25 04:04:50;;;;;;;21.03;17.67;;;12.40;99.90;;;;;;5010599;28;20621;-67
2021/09/25 04:07:16;;;;;;;20.27;17.13;;;12.30;99.90;;;;;;5016466;28;20176;-65
2021/09/25 04:09:41;;;;;;;21.70;17.53;;;12.30;99.90;;;;;;5031355;28;20213;-67
2021/09/25 04:12:07;;;;;;;25.93;17.90;;;12.30;99.90;;;;;;5026320;28;20176;-67
2021/09/25 04:14:33;;;;;;;19.63;17.30;;;12.30;99.90;;;;;;5031536;28;20198;-68
2021/09/25 04:16:58;;;;;;;19.67;17.10;;;12.30;99.90;;;;;;5025299;28;20219;-67
2021/09/25 04:19:26;;;;;;;19.37;17.37;;;12.30;99.90;;;;;;5011326;28;20561;-66
2021/09/25 04:21:52;;;;;;;20.67;16.83;;;12.30;99.90;;;;;;5016158;28;20836;-67
2021/09/25 04:24:18;;;;;;;19.40;17.33;;;12.30;99.90;;;;;;5031367;28;20301;-67
2021/09/25 04:26:43;;;;;;;23.77;16.37;;;12.30;99.90;;;;;;5029878;28;20175;-67
2021/09/25 04:29:09;;;;;;;22.37;20.20;;;12.30;99.90;;;;;;5030189;28;20574;-66
2021/09/25 04:31:35;;;;;;;24.13;20.07;;;12.40;99.90;;;;;;5030197;28;20163;-66
2021/09/25 04:34:04;;;;;;;25.60;19.10;;;12.40;99.90;;;;;;5011672;28;20271;-66
2021/09/25 04:36:31;;;;;;;21.70;19.47;;;12.40;99.90;;;;;;5011758;28;20259;-67
2021/09/25 04:38:57;;;;;;;30.30;19.03;;;12.50;99.90;;;;;;5030779;28;20569;-66
2021/09/25 04:41:23;;;;;;;24.40;18.20;;;12.50;99.90;;;;;;5031254;28;20179;-67
2021/09/25 04:43:49;;;;;;;23.03;20.37;;;12.60;99.90;;;;;;5013302;28;20700;-66
2021/09/25 04:46:15;;;;;;;20.33;17.97;;;12.70;99.90;;;;;;5017769;28;20621;-66
2021/09/25 04:48:40;;;;;;;21.53;17.20;;;12.70;99.90;;;;;;5027128;28;20223;-68
2021/09/25 04:51:06;;;;;;;19.13;17.10;;;12.70;99.90;;;;;;5011395;28;20172;-67
2021/09/25 04:53:32;;;;;;;18.03;16.20;;;12.70;99.90;;;;;;5014024;28;20645;-66
2021/09/25 04:55:58;;;;;;;17.57;15.97;;;12.80;99.90;;;;;;5031167;28;20177;-67
2021/09/25 04:58:29;;;;;;;17.30;15.60;;;12.70;99.90;;;;;;5031010;28;20672;-68
2021/09/25 05:00:56;;;;;;;18.63;16.77;;;12.80;99.90;;;;;;4991644;28;20199;-68
2021/09/25 05:03:22;;;;;;;24.60;22.80;;;12.80;99.90;;;;;;4991726;28;20196;-66
2021/09/25 05:05:48;;;;;;;18.27;15.20;;;12.80;99.90;;;;;;5029055;28;20214;-67
2021/09/25 05:08:14;;;;;;;15.80;14.40;;;12.80;99.90;;;;;;5031428;28;20664;-67
2021/09/25 05:10:39;;;;;;;15.97;14.53;;;12.80;99.90;;;;;;5013375;28;20173;-66
2021/09/25 05:13:05;;;;;;;16.00;14.07;;;12.80;99.90;;;;;;5011426;28;20245;-67
2021/09/25 05:15:30;;;;;;;17.20;15.67;;;12.80;99.90;;;;;;5026265;28;20199;-67
2021/09/25 05:17:56;;;;;;;16.30;14.90;;;12.90;99.90;;;;;;5030999;28;20176;-66
2021/09/25 05:20:22;;;;;;;21.40;20.00;;;13.00;99.90;;;;;;5017040;28;20184;-66
2021/09/25 05:22:47;;;;;;;15.10;12.27;;;13.00;99.90;;;;;;5011148;28;20226;-67
2021/09/25 05:25:13;;;;;;;13.97;12.57;;;13.00;99.90;;;;;;5023107;28;20211;-67
2021/09/25 05:27:40;;;;;;;15.87;14.53;;;13.00;99.90;;;;;;5030829;28;20605;-67
2021/09/25 05:30:07;;;;;;;13.47;12.13;;;13.10;99.90;;;;;;5020380;28;20204;-67
2021/09/25 05:32:33;;;;;;;15.50;12.47;;;13.20;99.90;;;;;;5013534;28;20251;-66
2021/09/25 05:34:58;;;;;;;14.63;13.33;;;13.20;99.90;;;;;;5022584;28;20326;-67
2021/09/25 05:37:24;;;;;;;14.47;13.17;;;13.30;99.90;;;;;;5034313;28;20221;-67
2021/09/25 05:39:54;;;;;;;13.03;12.10;;;13.30;99.90;;;;;;5027246;28;20235;-67
2021/09/25 05:42:21;;;;;;;13.13;11.97;;;13.30;99.90;;;;;;5018369;28;20183;-67
2021/09/25 05:44:47;;;;;;;13.53;12.20;;;13.30;99.90;;;;;;5034124;28;20253;-67
2021/09/25 05:47:13;;;;;;;13.03;11.80;;;13.30;99.90;;;;;;5031607;28;20183;-66
2021/09/25 05:49:39;;;;;;;12.90;11.80;;;13.30;99.90;;;;;;5013834;28;20291;-67
2021/09/25 05:52:08;;;;;;;13.13;12.03;;;13.40;99.90;;;;;;5014867;28;20173;-67
2021/09/25 05:54:34;;;;;;;13.97;12.67;;;13.40;99.90;;;;;;5034323;28;20184;-66
2021/09/25 05:57:00;;;;;;;12.97;11.97;;;13.50;99.90;;;;;;5033915;28;20178;-67
2021/09/25 05:59:25;;;;;;;14.63;13.00;;;13.50;99.90;;;;;;5014232;28;20259;-67
2021/09/25 06:01:51;;;;;;;13.63;12.43;;;13.60;99.90;;;;;;5013977;28;20180;-66
2021/09/25 06:04:16;;;;;;;12.57;11.47;;;13.70;99.90;;;;;;5031223;28;20214;-67
2021/09/25 06:06:42;;;;;;;15.43;13.87;;;13.70;99.90;;;;;;5021133;28;20685;-67
2021/09/25 06:09:07;;;;;;;13.40;12.40;;;13.80;99.90;;;;;;5013823;28;20203;-67
2021/09/25 06:11:33;;;;;;;13.00;12.00;;;13.90;99.90;;;;;;5026229;28;20241;-66
2021/09/25 06:13:59;;;;;;;13.37;12.20;;;14.00;99.90;;;;;;5033594;28;20191;-67
2021/09/25 06:16:24;;;;;;;14.27;13.00;;;14.10;99.90;;;;;;5025726;28;20665;-66
2021/09/25 06:18:50;;;;;;;12.20;11.20;;;14.10;99.90;;;;;;5033325;28;20180;-67
2021/09/25 06:21:16;;;;;;;12.57;11.40;;;14.30;99.90;;;;;;5024102;28;20176;-66
2021/09/25 06:23:41;;;;;;;13.30;11.90;;;14.30;99.90;;;;;;5013253;28;20761;-66
2021/09/25 06:26:08;;;;;;;12.17;11.20;;;14.40;99.90;;;;;;5016347;28;20172;-67
2021/09/25 06:28:34;;;;;;;12.83;11.73;;;14.50;99.90;;;;;;5013487;28;20196;-67
2021/09/25 06:31:02;;;;;;;12.07;11.10;;;14.50;99.90;;;;;;5018309;28;20611;-66
2021/09/25 06:33:28;;;;;;;12.97;11.70;;;14.50;99.90;;;;;;5033131;28;20182;-66
2021/09/25 06:35:53;;;;;;;12.17;11.17;;;14.60;99.90;;;;;;5031290;28;20184;-66
2021/09/25 06:38:20;;;;;;;12.43;11.33;;;14.60;99.90;;;;;;5033233;28;20175;-67
2021/09/25 06:40:46;;;;;;;17.30;13.17;;;14.70;99.90;;;;;;5028776;28;20187;-66
2021/09/25 06:43:12;;;;;;;13.00;11.90;;;14.90;99.90;;;;;;5012225;28;20180;-67
2021/09/25 06:45:39;;;;;;;12.03;11.13;;;15.00;99.90;;;;;;5013551;28;20196;-67
2021/09/25 06:48:05;;;;;;;11.33;10.33;;;15.20;99.90;;;;;;5032911;28;20179;-66
2021/09/25 06:50:31;;;;;;;10.73;9.90;;;15.40;99.90;;;;;;5014524;28;20255;-67
2021/09/25 06:52:57;;;;;;;12.57;11.40;;;15.50;99.90;;;;;;5011693;28;20607;-67
2021/09/25 06:55:22;;;;;;;12.13;11.13;;;15.70;99.90;;;;;;5028013;28;20210;-67
2021/09/25 06:57:48;;;;;;;11.70;10.77;;;15.80;99.90;;;;;;5012866;28;20172;-67
2021/09/25 07:00:14;;;;;;;11.77;10.87;;;16.00;99.90;;;;;;5026780;28;20183;-67
2021/09/25 07:02:40;;;;;;;12.20;11.13;;;16.20;99.90;;;;;;5032628;28;20175;-67
2021/09/25 07:05:08;;;;;;;11.70;10.60;;;16.30;99.90;;;;;;5019246;28;20215;-67
2021/09/25 07:07:34;;;;;;;26.77;15.17;;;16.30;99.90;;;;;;5013034;28;20649;-67
2021/09/25 07:10:00;;;;;;;11.77;10.80;;;16.50;99.90;;;;;;5023011;28;20239;-66
2021/09/25 07:12:26;;;;;;;12.10;11.00;;;16.60;99.90;;;;;;5032555;28;20175;-68
2021/09/25 07:14:52;;;;;;;12.83;11.23;;;16.70;99.90;;;;;;5022948;28;20193;-67
2021/09/25 07:17:18;;;;;;;11.27;10.23;;;16.70;99.90;;;;;;5012797;28;20263;-67
2021/09/25 07:19:43;;;;;;;11.43;10.50;;;16.80;99.90;;;;;;5019145;28;20258;-67
2021/09/25 07:22:09;;;;;;;11.23;10.13;;;17.00;99.90;;;;;;5032296;28;20178;-67
2021/09/25 07:24:36;;;;;;;11.30;10.40;;;17.10;99.90;;;;;;5026342;28;20228;-67
2021/09/25 07:27:02;;;;;;;11.13;10.30;;;17.20;99.90;;;;;;5014841;28;20187;-67
2021/09/25 07:29:27;;;;;;;11.87;10.87;;;17.30;99.90;;;;;;5031902;28;20199;-66
2021/09/25 07:31:53;;;;;;;11.73;10.90;;;17.30;99.90;;;;;;5030796;28;20183;-66
2021/09/25 07:34:19;;;;;;;12.27;11.00;;;17.40;99.90;;;;;;5012293;28;20202;-67
2021/09/25 07:36:45;;;;;;;10.67;9.77;;;17.60;99.90;;;;;;5012151;28;20306;-67
2021/09/25 07:39:11;;;;;;;11.10;10.20;;;17.70;99.90;;;;;;5030771;28;20561;-67
2021/09/25 07:41:36;;;;;;;11.23;10.23;;;17.80;99.90;;;;;;5031915;28;20179;-66
2021/09/25 07:44:06;;;;;;;10.40;9.60;;;18.10;99.90;;;;;;5014464;28;20204;-66
2021/09/25 07:46:32;;;;;;;10.43;9.40;;;18.20;99.90;;;;;;5012324;28;20176;-66
2021/09/25 07:49:00;;;;;;;12.00;9.83;;;18.40;99.90;;;;;;5013075;28;20204;-65
2021/09/25 07:51:27;;;;;;;9.67;8.67;;;18.70;99.90;;;;;;5012183;28;20361;-66
2021/09/25 07:53:53;;;;;;;9.17;8.50;;;19.00;99.90;;;;;;5025584;28;20594;-66
2021/09/25 07:56:19;;;;;;;10.17;9.17;;;19.40;99.90;;;;;;5020167;28;20242;-66
2021/09/25 07:58:45;;;;;;;10.40;9.60;;;19.70;99.90;;;;;;5010165;28;20180;-66
2021/09/25 08:01:10;;;;;;;9.10;8.17;;;19.90;99.90;;;;;;5021362;28;20187;-67
2021/09/25 08:03:36;;;;;;;8.80;8.10;;;20.50;99.90;;;;;;5031690;28;20648;-66
2021/09/25 08:06:02;;;;;;;8.25;7.53;;;20.90;99.90;;;;;;5021878;28;20172;-67
2021/09/25 08:08:28;;;;;;;7.95;7.28;;;21.40;99.90;;;;;;5010596;28;20266;-67
2021/09/25 08:10:54;;;;;;;8.40;7.70;;;21.70;99.90;;;;;;5017543;28;20255;-67
2021/09/25 08:13:19;;;;;;;7.55;7.00;;;22.00;99.90;;;;;;5031381;28;20178;-67
2021/09/25 08:15:45;;;;;;;7.72;7.03;;;22.40;99.90;;;;;;5025969;28;20178;-66
2021/09/25 08:18:11;;;;;;;7.65;7.07;;;22.80;99.90;;;;;;5011437;28;20184;-66
2021/09/25 08:20:37;;;;;;;7.30;6.70;;;23.30;99.90;;;;;;5012823;28;20182;-66
2021/09/25 08:23:02;;;;;;;6.72;6.22;;;23.90;99.90;;;;;;5029750;28;20205;-67
2021/09/25 08:25:28;;;;;;;7.22;6.65;;;24.50;99.90;;;;;;5010073;28;20211;-66
2021/09/25 08:27:53;;;;;;;7.28;6.68;;;24.80;99.90;;;;;;5011288;28;20176;-66
2021/09/25 08:30:20;;;;;;;7.13;6.53;;;25.50;99.90;;;;;;5028614;28;20214;-66
2021/09/25 08:32:47;;;;;;;6.88;6.10;;;25.60;99.90;;;;;;5030961;28;20167;-67
2021/09/25 08:35:12;;;;;;;7.35;6.85;;;25.40;99.90;;;;;;5013860;28;20199;-67
2021/09/25 08:37:40;;;;;;;7.95;7.35;;;25.60;99.90;;;;;;5011290;28;20183;-67
2021/09/25 08:40:09;;;;;;;6.85;6.20;;;25.60;99.90;;;;;;5025859;28;20215;-66
2021/09/25 08:42:34;;;;;;;7.28;6.78;;;25.40;99.90;;;;;;5030155;28;20218;-67
2021/09/25 08:45:01;;;;;;;7.80;6.82;;;25.50;99.90;;;;;;5017261;28;20207;-66
2021/09/25 08:47:26;;;;;;;7.30;6.28;;;25.50;99.90;;;;;;5010178;28;20588;-67
2021/09/25 08:49:52;;;;;;;7.70;7.00;;;25.20;99.90;;;;;;5030707;28;20211;-68
2021/09/25 08:52:18;;;;;;;7.47;6.88;;;25.00;99.90;;;;;;5022650;28;20172;-67
2021/09/25 08:54:45;;;;;;;7.03;6.47;;;25.00;99.90;;;;;;5011259;28;20269;-67
2021/09/25 08:57:10;;;;;;;10.25;7.40;;;25.20;99.90;;;;;;5018036;28;20263;-66
2021/09/25 08:59:36;;;;;;;10.57;7.95;;;25.20;99.90;;;;;;5030983;28;20259;-67
2021/09/25 09:02:17;;;;;;;8.15;7.35;;;25.30;99.90;;;;;;5025620;28;20721;-67
2021/09/25 09:04:52;;;;;;;7.32;6.53;;;25.50;99.90;;;;;;5011385;28;20191;-67
2021/09/25 09:07:28;;;;;;;9.43;7.55;;;25.70;99.90;;;;;;5019737;28;20183;-67
2021/09/25 09:09:54;;;;;;;8.73;7.88;;;25.90;99.90;;;;;;5034129;28;20241;-68
2021/09/25 09:12:24;;;;;;;8.93;8.23;;;25.90;99.90;;;;;;5028296;28;20204;-67
2021/09/25 09:14:51;;;;;;;8.68;7.93;;;25.90;99.90;;;;;;5014735;28;20192;-68
2021/09/25 09:17:25;;;;;;;7.80;7.07;;;26.10;99.90;;;;;;5018741;28;20266;-67
2021/09/25 09:19:52;;;;;;;8.52;6.32;;;26.40;99.90;;;;;;5030706;28;20222;-67
2021/09/25 09:22:20;;;;;;;6.97;6.45;;;26.50;99.90;;;;;;5013393;28;20183;-67
2021/09/25 09:24:48;;;;;;;9.10;7.05;;;26.30;99.90;;;;;;5015838;28;20203;-67
2021/09/25 09:27:23;;;;;;;10.18;8.73;;;26.10;99.90;;;;;;5034503;28;20170;-68
2021/09/25 09:29:48;;;;;;;12.13;10.93;;;25.90;99.90;;;;;;5031975;28;20313;-66
2021/09/25 09:32:14;;;;;;;11.35;10.25;;;25.80;99.90;;;;;;5014650;28;20268;-67
2021/09/25 09:34:42;;;;;;;10.88;9.68;;;25.80;99.90;;;;;;5014425;28;20192;-67
2021/09/25 09:37:16;;;;;;;13.02;8.68;;;25.50;99.90;;;;;;5000622;28;20172;-67
2021/09/25 09:39:42;;;;;;;12.07;8.75;;;25.40;99.90;;;;;;5013742;28;20172;-65
2021/09/25 09:42:07;;;;;;;9.48;8.10;;;25.70;99.90;;;;;;5018500;28;20269;-66
2021/09/25 09:44:33;;;;;;;11.75;9.40;;;25.90;99.90;;;;;;5013352;28;20689;-66
2021/09/25 09:47:08;;;;;;;9.73;8.75;;;26.10;99.90;;;;;;5030298;28;20206;-66
2021/09/25 09:49:37;;;;;;;9.55;8.45;;;26.40;99.90;;;;;;5017910;28;20206;-66
2021/09/25 09:52:10;;;;;;;9.52;8.52;;;26.50;99.90;;;;;;5014286;28;20256;-66
2021/09/25 09:54:44;;;;;;;9.48;8.20;;;26.70;99.90;;;;;;5029202;28;20600;-66
2021/09/25 09:57:18;;;;;;;8.68;7.72;;;27.30;99.90;;;;;;5032355;28;20191;-65
2021/09/25 09:59:46;;;;;;;9.82;9.07;;;27.90;99.90;;;;;;5013626;28;20176;-66
2021/09/25 10:02:12;;;;;;;8.32;7.53;;;28.30;99.90;;;;;;5015061;28;20263;-65
2021/09/25 10:04:39;;;;;;;9.75;8.38;;;28.70;99.90;;;;;;5033711;28;20652;-66
2021/09/25 10:07:06;;;;;;;10.00;7.85;;;28.80;99.90;;;;;;5033750;28;20186;-66
2021/09/25 10:09:34;;;;;;;7.55;6.85;;;28.90;99.90;;;;;;5032635;28;20257;-65
2021/09/25 10:12:03;;;;;;;7.93;7.13;;;29.00;99.90;;;;;;5033379;28;20203;-65
2021/09/25 10:14:32;;;;;;;9.15;7.00;;;29.00;99.90;;;;;;5014694;28;20188;-65
2021/09/25 10:17:00;;;;;;;8.50;7.25;;;28.70;99.90;;;;;;5028160;28;20175;-66
2021/09/25 10:19:33;;;;;;;7.43;6.75;;;28.80;99.90;;;;;;5033478;28;20171;-65
2021/09/25 10:22:10;;;;;;;8.13;7.50;;;29.00;99.90;;;;;;5018451;28;20180;-66
2021/09/25 10:24:43;;;;;;;7.32;6.63;;;29.40;99.90;;;;;;5013561;28;20744;-66
2021/09/25 10:27:10;;;;;;;7.25;6.40;;;29.60;99.90;;;;;;5028950;28;20679;-65
2021/09/25 10:29:43;;;;;;;6.85;6.25;;;29.70;99.90;;;;;;5033240;28;20250;-65
2021/09/25 10:32:30;;;;;;;6.57;5.97;;;29.40;99.90;;;;;;5018163;28;20180;-66
2021/09/25 10:35:06;;;;;;;7.38;6.68;;;29.00;99.90;;;;;;5013286;28;20188;-65
2021/09/25 10:37:39;;;;;;;6.22;5.80;;;29.10;99.90;;;;;;5030940;28;20183;-67
2021/09/25 10:40:16;;;;;;;7.15;6.45;;;29.10;99.90;;;;;;5032761;28;20195;-66
2021/09/25 10:42:46;;;;;;;7.80;6.97;;;28.80;99.90;;;;;;5014769;28;20204;-66
2021/09/25 10:45:34;;;;;;;8.25;6.13;;;28.70;99.90;;;;;;5028451;28;20290;-66
2021/09/25 10:48:13;;;;;;;6.00;5.50;;;29.00;99.90;;;;;;5022638;28;20176;-66
2021/09/25 10:50:52;;;;;;;7.18;6.50;;;29.00;99.90;;;;;;5013228;28;20658;-65
2021/09/25 10:53:20;;;;;;;7.10;6.38;;;29.30;99.90;;;;;;5024907;28;20606;-66
2021/09/25 10:55:51;;;;;;;9.95;8.95;;;29.40;99.90;;;;;;5032552;28;20168;-66
2021/09/25 10:58:23;;;;;;;7.43;6.80;;;29.30;99.90;;;;;;5019963;28;20180;-67
2021/09/25 11:01:19;;;;;;;6.35;5.80;;;28.90;99.90;;;;;;5012506;28;20251;-66
2021/09/25 11:03:55;;;;;;;6.57;6.03;;;28.90;99.90;;;;;;5022117;28;20230;-67
2021/09/25 11:06:45;;;;;;;7.90;7.10;;;28.30;99.90;;;;;;5032667;28;20561;-65
2021/09/25 11:09:40;;;;;;;9.68;7.28;;;28.20;99.90;;;;;;5014440;28;20212;-66
2021/09/25 11:12:08;;;;;;;6.78;6.25;;;28.40;99.90;;;;;;5016770;28;20649;-66
2021/09/25 11:14:56;;;;;;;7.63;6.95;;;28.60;99.90;;;;;;4993278;28;20224;-66
2021/09/25 11:17:24;;;;;;;6.75;6.05;;;28.90;99.90;;;;;;5000982;28;20187;-66
2021/09/25 11:20:09;;;;;;;7.30;5.57;;;29.40;99.90;;;;;;5012122;28;20168;-65
2021/09/25 11:22:36;;;;;;;6.13;5.45;;;29.90;99.90;;;;;;5018626;28;20556;-66
2021/09/25 11:25:17;;;;;;;6.57;6.07;;;30.10;99.90;;;;;;5030334;22;20223;-65
2021/09/25 11:27:49;;;;;;;14.10;10.70;;;29.90;99.90;;;;;;5020363;28;20210;-66
2021/09/25 11:30:17;;;;;;;5.90;5.40;;;30.00;99.90;;;;;;5031309;28;20570;-65
2021/09/25 11:32:57;;;;;;;7.65;6.40;;;30.10;99.90;;;;;;5024461;28;20183;-65
2021/09/25 11:35:30;;;;;;;8.07;6.00;;;30.40;99.90;;;;;;5013625;28;20195;-65
2021/09/25 11:38:03;;;;;;;8.13;6.82;;;30.70;99.90;;;;;;5020733;28;20206;-65
2021/09/25 11:40:32;;;;;;;5.90;5.40;;;30.60;99.90;;;;;;5024059;28;20230;-65
2021/09/25 11:43:07;;;;;;;6.18;5.78;;;30.80;99.90;;;;;;5012139;28;20319;-65
2021/09/25 11:45:38;;;;;;;6.47;5.97;;;31.00;99.90;;;;;;5017213;28;20202;-66
2021/09/25 11:48:05;;;;;;;12.95;8.73;;;30.50;99.90;;;;;;5031507;28;20194;-65
2021/09/25 11:50:38;;;;;;;6.97;6.38;;;30.50;99.90;;;;;;5025988;28;20200;-65
2021/09/25 11:53:08;;;;;;;5.90;5.50;;;30.30;99.90;;;;;;5012176;28;20179;-65
2021/09/25 11:55:36;;;;;;;8.18;7.13;;;30.40;99.90;;;;;;5013096;28;20192;-65
2021/09/25 11:58:09;;;;;;;7.60;6.88;;;30.30;99.90;;;;;;5011782;28;20267;-65
2021/09/25 12:00:37;;;;;;;7.38;6.68;;;30.50;99.90;;;;;;5016501;28;20176;-65
2021/09/25 12:03:05;;;;;;;6.57;6.00;;;30.40;99.90;;;;;;5031605;28;20254;-65
2021/09/25 12:05:33;;;;;;;6.40;5.88;;;30.30;99.90;;;;;;5027621;28;20204;-65
2021/09/25 12:08:08;;;;;;;7.53;6.93;;;30.20;99.90;;;;;;5011723;28;20176;-65
2021/09/25 12:10:38;;;;;;;7.18;5.35;;;30.10;99.90;;;;;;5015046;28;20702;-65
2021/09/25 12:13:08;;;;;;;7.88;6.20;;;29.80;99.90;;;;;;5031342;28;20187;-65
2021/09/25 12:15:44;;;;;;;6.35;5.75;;;29.70;99.90;;;;;;5026964;28;20608;-66
2021/09/25 12:18:20;;;;;;;6.55;6.05;;;29.70;99.90;;;;;;5011811;28;20172;-66
2021/09/25 12:20:52;;;;;;;5.63;5.22;;;29.60;99.90;;;;;;5015178;28;20682;-65
2021/09/25 12:23:29;;;;;;;5.88;5.47;;;29.80;99.90;;;;;;5031517;28;20218;-66
2021/09/25 12:25:54;;;;;;;5.90;5.40;;;30.20;99.90;;;;;;5025935;28;20588;-65
2021/09/25 12:28:32;;;;;;;6.25;5.75;;;30.50;99.90;;;;;;5011695;28;20176;-65
2021/09/25 12:31:04;;;;;;;5.10;4.70;;;30.30;99.90;;;;;;5015795;28;20274;-66
2021/09/25 12:33:29;;;;;;;7.20;5.20;;;30.50;99.90;;;;;;5029143;28;20186;-66
2021/09/25 12:36:00;;;;;;;5.95;5.38;;;30.50;99.90;;;;;;5011682;28;20735;-65